Wetterdaten: Woche 08.06.15 - 14.06.15 (KW24)
Datum Zeit Temperatur Luftfeuchte Luftdruck Niederschlag Windrichtung Sonnenschein Solar Wind
08.06.2015 00:00 19,7 C 85 % 1018,8 hPa 0,0 l/m N 0,00 h 0 W/m 7,9 km/h (2 Bft)
08.06.2015 01:00 19,0 C 88 % 1018,6 hPa 0,0 l/m N 0,00 h 0 W/m 8,3 km/h (2 Bft)
08.06.2015 02:00 17,9 C 79 % 1019,2 hPa 7,2 l/m W 0,00 h 0 W/m 28,3 km/h (4 Bft)
08.06.2015 03:00 15,3 C 94 % 1019,4 hPa 3,0 l/m SW 0,00 h 0 W/m 5,5 km/h (1 Bft)
08.06.2015 04:00 15,0 C 97 % 1018,5 hPa 4,8 l/m SW 0,00 h 0 W/m 5,4 km/h (1 Bft)
08.06.2015 05:00 15,0 C 98 % 1018,4 hPa 1,8 l/m SW 0,00 h 5 W/m 10,2 km/h (2 Bft)
08.06.2015 06:00 15,0 C 98 % 1018,2 hPa 0,0 l/m SW 0,00 h 12 W/m 2,5 km/h (1 Bft)
08.06.2015 07:00 15,1 C 98 % 1017,9 hPa 0,0 l/m SW 0,00 h 33 W/m 3,5 km/h (1 Bft)
08.06.2015 08:00 15,2 C 98 % 1017,7 hPa 0,0 l/m W-NW 0,00 h 55 W/m 11,8 km/h (2 Bft)
08.06.2015 09:00 15,2 C 97 % 1017,7 hPa 0,0 l/m NW 0,00 h 95 W/m 13,0 km/h (3 Bft)
08.06.2015 10:00 15,1 C 96 % 1017,8 hPa 0,0 l/m N 0,00 h 111 W/m 10,6 km/h (2 Bft)
08.06.2015 11:00 15,3 C 95 % 1018,0 hPa 0,0 l/m N 0,00 h 96 W/m 11,0 km/h (2 Bft)
08.06.2015 12:00 15,1 C 96 % 1018,1 hPa 1,6 l/m N-NW 0,00 h 75 W/m 8,4 km/h (2 Bft)
08.06.2015 13:00 14,8 C 97 % 1018,1 hPa 2,0 l/m N-NW 0,00 h 106 W/m 14,8 km/h (3 Bft)
08.06.2015 14:00 14,9 C 97 % 1018,0 hPa 0,4 l/m N-NW 0,00 h 130 W/m 12,2 km/h (2 Bft)
08.06.2015 15:00 15,2 C 96 % 1017,7 hPa 0,0 l/m NO 0,00 h 79 W/m 12,8 km/h (3 Bft)
08.06.2015 16:00 14,5 C 96 % 1017,9 hPa 0,0 l/m N-NO 0,00 h 45 W/m 16,2 km/h (3 Bft)
08.06.2015 17:00 14,0 C 94 % 1018,0 hPa 0,0 l/m N-NO 0,00 h 144 W/m 18,8 km/h (3 Bft)
08.06.2015 18:00 13,9 C 93 % 1018,3 hPa 0,0 l/m N 0,00 h 48 W/m 13,2 km/h (3 Bft)
08.06.2015 19:00 13,3 C 92 % 1018,7 hPa 0,0 l/m N-NO 0,00 h 26 W/m 13,3 km/h (3 Bft)
08.06.2015 20:00 12,8 C 93 % 1019,1 hPa 0,0 l/m N-NO 0,00 h 10 W/m 14,0 km/h (3 Bft)
08.06.2015 21:00 12,7 C 94 % 1019,2 hPa 0,0 l/m N-NO 0,00 h 0 W/m 11,7 km/h (2 Bft)
08.06.2015 22:00 12,6 C 94 % 1019,7 hPa 0,0 l/m N-NO 0,00 h 0 W/m 9,9 km/h (2 Bft)
08.06.2015 23:00 12,3 C 95 % 1019,8 hPa 0,0 l/m NO 0,00 h 0 W/m 8,2 km/h (2 Bft)
09.06.2015 00:00 11,8 C 96 % 1020,0 hPa 0,0 l/m NO 0,00 h 0 W/m 11,7 km/h (2 Bft)
09.06.2015 01:00 11,3 C 96 % 1019,9 hPa 0,0 l/m N-NO 0,00 h 0 W/m 13,8 km/h (3 Bft)
09.06.2015 02:00 11,3 C 96 % 1019,4 hPa 0,0 l/m NO 0,00 h 0 W/m 11,4 km/h (2 Bft)
09.06.2015 03:00 11,3 C 96 % 1019,0 hPa 0,0 l/m NO 0,00 h 0 W/m 12,8 km/h (3 Bft)
09.06.2015 04:00 11,1 C 96 % 1019,0 hPa 0,0 l/m NO 0,00 h 0 W/m 13,0 km/h (3 Bft)
09.06.2015 05:00 10,9 C 97 % 1019,2 hPa 0,0 l/m NO 0,00 h 0 W/m 12,8 km/h (3 Bft)
09.06.2015 06:00 10,9 C 97 % 1019,5 hPa 0,0 l/m NO 0,00 h 7 W/m 11,5 km/h (2 Bft)
09.06.2015 07:00 10,9 C 97 % 1019,5 hPa 0,0 l/m NO 0,00 h 16 W/m 13,6 km/h (3 Bft)
09.06.2015 08:00 11,1 C 97 % 1019,6 hPa 0,0 l/m NO 0,00 h 35 W/m 15,3 km/h (3 Bft)
09.06.2015 09:00 11,4 C 95 % 1019,8 hPa 0,0 l/m O-NO 0,00 h 48 W/m 14,0 km/h (3 Bft)
09.06.2015 10:00 11,8 C 94 % 1019,8 hPa 0,0 l/m O-NO 0,00 h 74 W/m 16,1 km/h (3 Bft)
09.06.2015 11:00 12,0 C 93 % 1020,0 hPa 0,0 l/m NO 0,00 h 67 W/m 16,2 km/h (3 Bft)
09.06.2015 12:00 11,8 C 94 % 1020,2 hPa 0,0 l/m NO 0,00 h 85 W/m 16,1 km/h (3 Bft)
09.06.2015 13:00 11,9 C 94 % 1020,2 hPa 0,0 l/m O-NO 0,00 h 105 W/m 16,6 km/h (3 Bft)
09.06.2015 14:00 12,6 C 91 % 1020,3 hPa 0,0 l/m O-NO 0,00 h 114 W/m 17,0 km/h (3 Bft)
09.06.2015 15:00 13,2 C 89 % 1020,4 hPa 0,0 l/m NO 0,00 h 116 W/m 16,5 km/h (3 Bft)
09.06.2015 16:00 13,1 C 88 % 1020,4 hPa 0,0 l/m NO 0,00 h 74 W/m 20,0 km/h (4 Bft)
09.06.2015 17:00 12,6 C 91 % 1020,4 hPa 0,0 l/m O-NO 0,00 h 56 W/m 17,2 km/h (3 Bft)
09.06.2015 18:00 12,0 C 92 % 1020,4 hPa 0,0 l/m NO 0,00 h 29 W/m 16,5 km/h (3 Bft)
09.06.2015 19:00 11,9 C 93 % 1020,5 hPa 0,0 l/m O-NO 0,00 h 22 W/m 19,0 km/h (3 Bft)
09.06.2015 20:00 11,8 C 92 % 1020,7 hPa 0,0 l/m O-NO 0,00 h 8 W/m 14,8 km/h (3 Bft)
09.06.2015 21:00 11,7 C 93 % 1020,8 hPa 0,0 l/m O-NO 0,00 h 0 W/m 17,6 km/h (3 Bft)
09.06.2015 22:00 11,6 C 92 % 1020,9 hPa 0,0 l/m O-NO 0,00 h 0 W/m 16,9 km/h (3 Bft)
09.06.2015 23:00 11,5 C 93 % 1021,0 hPa 0,0 l/m O-NO 0,00 h 0 W/m 18,5 km/h (3 Bft)
10.06.2015 00:00 11,3 C 94 % 1020,7 hPa 0,0 l/m O-NO 0,00 h 0 W/m 17,6 km/h (3 Bft)
10.06.2015 01:00 11,2 C 94 % 1020,4 hPa 0,0 l/m NO 0,00 h 0 W/m 17,6 km/h (3 Bft)
10.06.2015 02:00 11,1 C 94 % 1019,9 hPa 0,0 l/m O-NO 0,00 h 0 W/m 16,5 km/h (3 Bft)
10.06.2015 03:00 10,9 C 95 % 1019,9 hPa 0,0 l/m O-NO 0,00 h 0 W/m 14,9 km/h (3 Bft)
10.06.2015 04:00 10,8 C 95 % 1020,0 hPa 0,0 l/m O-NO 0,00 h 0 W/m 14,8 km/h (3 Bft)
10.06.2015 05:00 10,6 C 97 % 1019,8 hPa 0,0 l/m O-NO 0,00 h 5 W/m 12,4 km/h (3 Bft)
10.06.2015 06:00 10,6 C 98 % 1020,0 hPa 0,0 l/m O-NO 0,00 h 11 W/m 11,0 km/h (2 Bft)
10.06.2015 07:00 10,7 C 98 % 1020,2 hPa 0,0 l/m O-NO 0,00 h 25 W/m 12,1 km/h (2 Bft)
10.06.2015 08:00 10,9 C 98 % 1020,2 hPa 0,0 l/m O-NO 0,00 h 40 W/m 12,9 km/h (3 Bft)
10.06.2015 09:00 11,4 C 98 % 1020,2 hPa 0,0 l/m O 0,00 h 82 W/m 12,8 km/h (3 Bft)
10.06.2015 10:00 12,4 C 95 % 1020,3 hPa 0,0 l/m O-NO 0,00 h 138 W/m 12,2 km/h (2 Bft)
10.06.2015 11:00 13,8 C 90 % 1020,6 hPa 0,0 l/m O-NO 0,00 h 188 W/m 11,9 km/h (2 Bft)
10.06.2015 12:00 14,4 C 88 % 1020,5 hPa 0,0 l/m NO 0,00 h 149 W/m 12,9 km/h (3 Bft)
10.06.2015 13:00 14,8 C 88 % 1020,4 hPa 0,0 l/m O-NO 0,00 h 116 W/m 13,0 km/h (3 Bft)
10.06.2015 14:00 15,7 C 85 % 1020,0 hPa 0,0 l/m O-NO 0,00 h 186 W/m 12,2 km/h (2 Bft)
10.06.2015 15:00 16,4 C 83 % 1019,8 hPa 0,0 l/m O-NO 0,00 h 219 W/m 15,0 km/h (3 Bft)
10.06.2015 16:00 16,9 C 82 % 1019,6 hPa 0,0 l/m O-NO 0,00 h 206 W/m 13,6 km/h (3 Bft)
10.06.2015 17:00 17,5 C 80 % 1019,2 hPa 0,0 l/m O-NO 0,08 h 231 W/m 13,3 km/h (3 Bft)
10.06.2015 18:00 17,4 C 80 % 1018,9 hPa 0,0 l/m O-NO 0,00 h 91 W/m 12,5 km/h (3 Bft)
10.06.2015 19:00 17,0 C 82 % 1019,2 hPa 0,0 l/m O-NO 0,00 h 64 W/m 13,4 km/h (3 Bft)
10.06.2015 20:00 16,4 C 85 % 1018,9 hPa 0,0 l/m O-NO 0,00 h 34 W/m 12,1 km/h (2 Bft)
10.06.2015 21:00 15,9 C 87 % 1019,2 hPa 0,0 l/m O-NO 0,00 h 6 W/m 9,7 km/h (2 Bft)
10.06.2015 22:00 15,4 C 90 % 1019,7 hPa 0,0 l/m O-NO 0,00 h 0 W/m 6,0 km/h (2 Bft)
10.06.2015 23:00 15,0 C 91 % 1019,6 hPa 0,0 l/m O-NO 0,00 h 0 W/m 4,0 km/h (1 Bft)
11.06.2015 00:00 14,5 C 93 % 1019,3 hPa 0,0 l/m N 0,00 h 0 W/m 0,3 km/h (0 Bft)
11.06.2015 01:00 13,2 C 95 % 1018,9 hPa 0,0 l/m N 0,00 h 0 W/m 0,1 km/h (0 Bft)
11.06.2015 02:00 12,4 C 97 % 1018,5 hPa 0,0 l/m O-NO 0,00 h 0 W/m 1,1 km/h (0 Bft)
11.06.2015 03:00 12,0 C 98 % 1018,1 hPa 0,0 l/m N 0,00 h 0 W/m 0,7 km/h (0 Bft)
11.06.2015 04:00 11,6 C 98 % 1018,0 hPa 0,0 l/m O-NO 0,00 h 0 W/m 1,1 km/h (0 Bft)
11.06.2015 05:00 11,7 C 99 % 1018,0 hPa 0,0 l/m O-NO 0,00 h 8 W/m 2,5 km/h (1 Bft)
11.06.2015 06:00 12,3 C 99 % 1017,8 hPa 0,0 l/m O-NO 0,00 h 39 W/m 4,4 km/h (1 Bft)
11.06.2015 07:00 12,9 C 99 % 1017,5 hPa 0,0 l/m O 0,00 h 69 W/m 7,2 km/h (2 Bft)
11.06.2015 08:00 13,8 C 98 % 1017,5 hPa 0,0 l/m O 0,00 h 160 W/m 4,3 km/h (1 Bft)
11.06.2015 09:00 16,1 C 91 % 1017,4 hPa 0,0 l/m O-NO 0,08 h 292 W/m 3,5 km/h (1 Bft)
11.06.2015 10:00 17,4 C 86 % 1017,1 hPa 0,0 l/m O-NO 0,00 h 220 W/m 2,5 km/h (1 Bft)
11.06.2015 11:00 18,9 C 79 % 1016,9 hPa 0,0 l/m O-SO 0,00 h 306 W/m 9,1 km/h (2 Bft)
11.06.2015 12:00 20,1 C 75 % 1016,6 hPa 0,0 l/m O 0,25 h 468 W/m 8,7 km/h (2 Bft)
11.06.2015 13:00 21,7 C 68 % 1015,9 hPa 0,0 l/m O 0,83 h 796 W/m 12,5 km/h (3 Bft)
11.06.2015 14:00 22,9 C 64 % 1014,9 hPa 0,0 l/m O-NO 1,00 h 826 W/m 13,8 km/h (3 Bft)
11.06.2015 15:00 24,2 C 60 % 1014,3 hPa 0,0 l/m O-SO 1,00 h 785 W/m 12,6 km/h (3 Bft)
11.06.2015 16:00 24,8 C 58 % 1013,4 hPa 0,0 l/m O-NO 1,00 h 681 W/m 14,6 km/h (3 Bft)
11.06.2015 17:00 24,7 C 59 % 1012,8 hPa 0,0 l/m NO 0,58 h 413 W/m 13,6 km/h (3 Bft)
11.06.2015 18:00 24,0 C 61 % 1012,2 hPa 0,0 l/m O 0,67 h 302 W/m 15,3 km/h (3 Bft)
11.06.2015 19:00 22,7 C 66 % 1012,1 hPa 0,0 l/m O 0,58 h 138 W/m 12,0 km/h (2 Bft)
11.06.2015 20:00 21,6 C 70 % 1012,3 hPa 0,0 l/m O 0,00 h 30 W/m 6,5 km/h (2 Bft)
11.06.2015 21:00 19,5 C 79 % 1012,4 hPa 0,0 l/m O 0,00 h 7 W/m 1,6 km/h (1 Bft)
11.06.2015 22:00 17,3 C 89 % 1012,2 hPa 0,0 l/m N 0,00 h 0 W/m 0,9 km/h (0 Bft)
11.06.2015 23:00 16,6 C 91 % 1011,8 hPa 0,0 l/m N 0,00 h 0 W/m 0,8 km/h (0 Bft)
12.06.2015 00:00 15,9 C 94 % 1011,5 hPa 0,0 l/m O-NO 0,00 h 0 W/m 1,6 km/h (1 Bft)
12.06.2015 01:00 15,3 C 95 % 1011,2 hPa 0,0 l/m O-NO 0,00 h 0 W/m 1,3 km/h (1 Bft)
12.06.2015 02:00 14,7 C 96 % 1010,7 hPa 0,0 l/m N 0,00 h 0 W/m 0,8 km/h (0 Bft)
12.06.2015 03:00 14,1 C 97 % 1010,4 hPa 0,0 l/m N 0,00 h 0 W/m 0,1 km/h (0 Bft)
12.06.2015 04:00 13,5 C 98 % 1010,1 hPa 0,0 l/m O-NO 0,00 h 0 W/m 0,9 km/h (0 Bft)
12.06.2015 05:00 13,3 C 98 % 1010,3 hPa 0,0 l/m O-NO 0,00 h 10 W/m 0,5 km/h (0 Bft)
12.06.2015 06:00 13,4 C 98 % 1010,7 hPa 0,0 l/m N 0,00 h 54 W/m 0,1 km/h (0 Bft)
12.06.2015 07:00 15,1 C 97 % 1010,8 hPa 0,0 l/m N 0,67 h 194 W/m 0,3 km/h (0 Bft)
12.06.2015 08:00 17,9 C 88 % 1011,0 hPa 0,0 l/m O-NO 1,00 h 361 W/m 3,2 km/h (1 Bft)
12.06.2015 09:00 20,0 C 81 % 1010,6 hPa 0,0 l/m O-NO 1,00 h 527 W/m 3,7 km/h (1 Bft)
12.06.2015 10:00 22,4 C 74 % 1010,3 hPa 0,0 l/m O-NO 1,00 h 674 W/m 4,1 km/h (1 Bft)
12.06.2015 11:00 24,2 C 65 % 1010,1 hPa 0,0 l/m S-SW 1,00 h 793 W/m 5,5 km/h (1 Bft)
12.06.2015 12:00 25,7 C 50 % 1009,7 hPa 0,0 l/m SW 1,00 h 875 W/m 5,9 km/h (2 Bft)
12.06.2015 13:00 27,2 C 43 % 1009,1 hPa 0,0 l/m S-SW 1,00 h 907 W/m 7,0 km/h (2 Bft)
12.06.2015 14:00 28,4 C 38 % 1008,7 hPa 0,0 l/m S-SW 1,00 h 816 W/m 6,8 km/h (2 Bft)
12.06.2015 15:00 28,3 C 41 % 1008,1 hPa 0,0 l/m SW 0,92 h 665 W/m 5,6 km/h (1 Bft)
12.06.2015 16:00 29,3 C 36 % 1007,6 hPa 0,0 l/m SW 1,00 h 688 W/m 11,3 km/h (2 Bft)
12.06.2015 17:00 29,7 C 35 % 1007,1 hPa 0,0 l/m S-SO 0,92 h 526 W/m 8,2 km/h (2 Bft)
12.06.2015 18:00 28,3 C 39 % 1006,5 hPa 0,0 l/m O 0,33 h 158 W/m 4,8 km/h (1 Bft)
12.06.2015 19:00 25,3 C 58 % 1006,3 hPa 0,0 l/m O 0,00 h 90 W/m 0,9 km/h (0 Bft)
12.06.2015 20:00 23,6 C 63 % 1006,3 hPa 0,0 l/m SW 0,00 h 14 W/m 5,4 km/h (1 Bft)
12.06.2015 21:00 23,3 C 59 % 1006,9 hPa 0,0 l/m W 0,00 h 5 W/m 17,6 km/h (3 Bft)
12.06.2015 22:00 21,1 C 68 % 1007,7 hPa 0,0 l/m W-SW 0,00 h 0 W/m 4,0 km/h (1 Bft)
12.06.2015 23:00 19,0 C 80 % 1007,6 hPa 0,0 l/m N 0,00 h 0 W/m 0,0 km/h (0 Bft)
13.06.2015 00:00 17,8 C 86 % 1007,5 hPa 0,0 l/m N 0,00 h 0 W/m 0,0 km/h (0 Bft)
13.06.2015 01:00 16,9 C 91 % 1007,0 hPa 0,0 l/m W-SW 0,00 h 0 W/m 1,2 km/h (1 Bft)
13.06.2015 02:00 16,5 C 93 % 1006,8 hPa 0,0 l/m W-SW 0,00 h 0 W/m 0,1 km/h (0 Bft)
13.06.2015 03:00 16,1 C 95 % 1006,4 hPa 0,0 l/m W-SW 0,00 h 0 W/m 0,5 km/h (0 Bft)
13.06.2015 04:00 15,8 C 96 % 1006,0 hPa 0,0 l/m W-SW 0,00 h 0 W/m 1,1 km/h (0 Bft)
13.06.2015 05:00 15,6 C 96 % 1006,0 hPa 0,0 l/m N 0,00 h 12 W/m 0,8 km/h (0 Bft)
13.06.2015 06:00 15,9 C 96 % 1006,6 hPa 0,0 l/m W-SW 0,00 h 58 W/m 2,1 km/h (1 Bft)
13.06.2015 07:00 17,7 C 88 % 1007,6 hPa 0,0 l/m SW 0,25 h 147 W/m 9,7 km/h (2 Bft)
13.06.2015 08:00 18,7 C 86 % 1008,4 hPa 0,0 l/m SW 0,33 h 245 W/m 15,7 km/h (3 Bft)
13.06.2015 09:00 20,1 C 77 % 1009,0 hPa 0,0 l/m W-SW 0,50 h 376 W/m 18,9 km/h (3 Bft)
13.06.2015 10:00 20,6 C 74 % 1009,2 hPa 0,0 l/m W-SW 0,42 h 451 W/m 17,8 km/h (3 Bft)
13.06.2015 11:00 21,4 C 68 % 1009,3 hPa 0,0 l/m SW 0,08 h 357 W/m 19,0 km/h (3 Bft)
13.06.2015 12:00 22,2 C 65 % 1009,4 hPa 0,0 l/m W-SW 0,33 h 560 W/m 18,0 km/h (3 Bft)
13.06.2015 13:00 23,2 C 62 % 1009,1 hPa 0,0 l/m W 0,58 h 536 W/m 16,6 km/h (3 Bft)
13.06.2015 14:00 24,4 C 57 % 1009,0 hPa 0,0 l/m W 0,92 h 810 W/m 18,9 km/h (3 Bft)
13.06.2015 15:00 25,4 C 51 % 1008,7 hPa 0,0 l/m W 1,00 h 716 W/m 17,3 km/h (3 Bft)
13.06.2015 16:00 25,3 C 51 % 1008,3 hPa 0,0 l/m W 0,75 h 531 W/m 16,9 km/h (3 Bft)
13.06.2015 17:00 24,3 C 54 % 1007,9 hPa 0,0 l/m W 0,75 h 473 W/m 11,8 km/h (2 Bft)
13.06.2015 18:00 25,4 C 50 % 1007,2 hPa 0,0 l/m N-NO 1,00 h 412 W/m 12,9 km/h (3 Bft)
13.06.2015 19:00 24,4 C 54 % 1007,4 hPa 0,0 l/m NO 1,00 h 228 W/m 9,7 km/h (2 Bft)
13.06.2015 20:00 22,8 C 60 % 1007,6 hPa 0,0 l/m N-NO 0,00 h 39 W/m 8,2 km/h (2 Bft)
13.06.2015 21:00 20,6 C 69 % 1008,2 hPa 0,0 l/m N 0,00 h 7 W/m 1,3 km/h (1 Bft)
13.06.2015 22:00 18,8 C 77 % 1008,9 hPa 0,0 l/m N-NO 0,00 h 0 W/m 6,4 km/h (2 Bft)
13.06.2015 23:00 18,5 C 81 % 1008,9 hPa 0,0 l/m NO 0,00 h 0 W/m 4,5 km/h (1 Bft)
14.06.2015 00:00 18,1 C 85 % 1009,1 hPa 0,4 l/m NO 0,00 h 0 W/m 1,1 km/h (0 Bft)
14.06.2015 01:00 17,0 C 93 % 1009,4 hPa 1,4 l/m NO 0,00 h 0 W/m 4,5 km/h (1 Bft)
14.06.2015 02:00 16,5 C 94 % 1008,8 hPa 0,0 l/m NO 0,00 h 0 W/m 3,3 km/h (1 Bft)
14.06.2015 03:00 15,9 C 95 % 1009,0 hPa 0,0 l/m N-NW 0,00 h 0 W/m 6,6 km/h (2 Bft)
14.06.2015 04:00 15,2 C 96 % 1008,3 hPa 0,0 l/m N 0,00 h 0 W/m 0,9 km/h (0 Bft)
14.06.2015 05:00 14,8 C 97 % 1008,0 hPa 0,0 l/m N 0,00 h 9 W/m 0,4 km/h (0 Bft)
14.06.2015 06:00 14,9 C 97 % 1007,6 hPa 0,0 l/m N-NW 0,00 h 36 W/m 2,3 km/h (1 Bft)
14.06.2015 07:00 15,8 C 96 % 1007,4 hPa 0,0 l/m N-NW 0,42 h 160 W/m 4,8 km/h (1 Bft)
14.06.2015 08:00 17,8 C 88 % 1007,3 hPa 0,0 l/m N-NO 1,00 h 343 W/m 10,3 km/h (2 Bft)
14.06.2015 09:00 19,9 C 79 % 1007,2 hPa 0,0 l/m NO 1,00 h 495 W/m 10,6 km/h (2 Bft)
14.06.2015 10:00 21,1 C 74 % 1006,8 hPa 0,0 l/m NO 1,00 h 620 W/m 15,4 km/h (3 Bft)
14.06.2015 11:00 22,2 C 68 % 1006,4 hPa 0,0 l/m NO 1,00 h 758 W/m 16,5 km/h (3 Bft)
14.06.2015 12:00 23,5 C 65 % 1006,0 hPa 0,0 l/m NO 0,83 h 762 W/m 16,9 km/h (3 Bft)
14.06.2015 13:00 24,6 C 61 % 1005,8 hPa 0,0 l/m O-NO 0,75 h 863 W/m 17,6 km/h (3 Bft)
14.06.2015 14:00 24,2 C 61 % 1005,1 hPa 0,0 l/m O-NO 0,08 h 329 W/m 17,2 km/h (3 Bft)
14.06.2015 15:00 24,5 C 61 % 1004,5 hPa 0,0 l/m O 0,50 h 530 W/m 20,8 km/h (4 Bft)
14.06.2015 16:00 25,0 C 58 % 1003,9 hPa 0,0 l/m O-SO 0,58 h 432 W/m 20,4 km/h (4 Bft)
14.06.2015 17:00 23,3 C 65 % 1003,8 hPa 0,0 l/m O-NO 0,00 h 89 W/m 14,0 km/h (3 Bft)
14.06.2015 18:00 22,5 C 69 % 1003,9 hPa 0,0 l/m N-NO 0,00 h 37 W/m 9,5 km/h (2 Bft)
14.06.2015 19:00 19,6 C 74 % 1004,8 hPa 0,0 l/m W-SW 0,00 h 6 W/m 24,9 km/h (4 Bft)
14.06.2015 20:00 16,0 C 90 % 1005,4 hPa 7,4 l/m W-SW 0,00 h 0 W/m 12,3 km/h (3 Bft)
14.06.2015 21:00 15,4 C 95 % 1005,7 hPa 2,2 l/m NW 0,00 h 0 W/m 6,3 km/h (2 Bft)
14.06.2015 22:00 15,0 C 96 % 1006,7 hPa 2,6 l/m N-NW 0,00 h 0 W/m 2,8 km/h (1 Bft)
14.06.2015 23:00 15,0 C 97 % 1007,4 hPa 1,4 l/m W-SW 0,00 h 0 W/m 2,9 km/h (1 Bft)
Min-Datum _ 10.06.15 12.06.15 14.06.15 - - - - 08.06.15
_ Min-Zeit 05:20 16:15 17:50 - - - - 01:30
Minimum _ 10,6 C 34 % 1003,5 hPa - - - - 0,0 km/h (0 Bft)
Max-Datum _ 12.06.15 12.06.15 09.06.15 14.06.15 - 10.06.15 13.06.15 14.06.15
_ Max-Zeit 17:20 07:20 23:05 20:15 - 17:55 12:40 19:30
Maximum _ 29,9 C 100 % 1021,1 hPa 7,4 l/m - 0,08 h 1113 W/m 41,8 km/h
W (6 Bft)
Durchschnitt _ 17,0 C 84 % 1014,0 hPa #36,2 l/m O-NO #32:00 h 246 W/m 9,9 km/h (2 Bft)